createdAt,value
2022-10-17T00:00:15.898Z,16.50
2022-10-17T00:02:42.518Z,16.50
2022-10-17T00:05:09.115Z,16.50
2022-10-17T00:07:35.921Z,16.50
2022-10-17T00:10:02.742Z,16.50
2022-10-17T00:12:29.345Z,16.40
2022-10-17T00:14:56.147Z,16.50
2022-10-17T00:17:22.753Z,16.40
2022-10-17T00:19:49.351Z,16.40
2022-10-17T00:22:15.954Z,16.40
2022-10-17T00:24:42.586Z,16.40
2022-10-17T00:27:09.398Z,16.40
2022-10-17T00:29:36.014Z,16.40
2022-10-17T00:32:02.616Z,16.40
2022-10-17T00:34:29.217Z,16.40
2022-10-17T00:36:55.825Z,16.40
2022-10-17T00:39:22.422Z,16.40
2022-10-17T00:41:49.250Z,16.40
2022-10-17T00:44:16.086Z,16.40
2022-10-17T00:46:42.693Z,16.40
2022-10-17T00:49:09.299Z,16.40
2022-10-17T00:51:36.113Z,16.40
2022-10-17T00:54:02.922Z,16.40
2022-10-17T00:56:29.518Z,16.40
2022-10-17T00:58:56.432Z,16.40
2022-10-17T01:01:23.159Z,16.30
2022-10-17T01:03:49.777Z,16.40
2022-10-17T01:06:16.406Z,16.30
2022-10-17T01:08:43.030Z,16.30
2022-10-17T01:11:09.858Z,16.30
2022-10-17T01:13:36.459Z,16.30
2022-10-17T01:16:03.061Z,16.30
2022-10-17T01:18:29.648Z,16.30
2022-10-17T01:20:56.446Z,16.30
2022-10-17T01:23:23.062Z,16.30
2022-10-17T01:25:49.677Z,16.30
2022-10-17T01:28:16.279Z,16.30
2022-10-17T01:30:42.888Z,16.30
2022-10-17T01:33:10.493Z,16.20
2022-10-17T01:35:37.103Z,16.30
2022-10-17T01:38:03.901Z,16.30
2022-10-17T01:40:30.492Z,16.30
2022-10-17T01:42:57.118Z,16.20
2022-10-17T01:45:23.742Z,16.30
2022-10-17T01:47:50.385Z,16.20
2022-10-17T01:50:16.975Z,16.20
2022-10-17T01:52:43.563Z,16.20
2022-10-17T01:55:10.338Z,16.20
2022-10-17T01:57:36.921Z,16.20
2022-10-17T02:00:03.502Z,16.20
2022-10-17T02:02:30.078Z,16.20
2022-10-17T02:04:56.700Z,16.20
2022-10-17T02:07:23.334Z,16.20
2022-10-17T02:09:49.915Z,16.20
2022-10-17T02:12:16.489Z,16.20
2022-10-17T02:14:43.277Z,16.20
2022-10-17T02:17:09.849Z,16.10
2022-10-17T02:19:36.421Z,16.20
2022-10-17T02:22:03.008Z,16.10
2022-10-17T02:24:29.791Z,16.10
2022-10-17T02:26:56.594Z,16.10
2022-10-17T02:29:23.177Z,16.10
2022-10-17T02:31:49.768Z,16.10
2022-10-17T02:34:16.353Z,16.10
2022-10-17T02:36:42.932Z,16.10
2022-10-17T02:39:09.513Z,16.10
2022-10-17T02:41:36.106Z,16.10
2022-10-17T02:44:02.686Z,16.10
2022-10-17T02:46:29.476Z,16.10
2022-10-17T02:51:40.268Z,16.10
2022-10-17T02:54:06.842Z,16.00
2022-10-17T02:56:33.446Z,16.00
2022-10-17T02:59:00.036Z,16.00
2022-10-17T03:01:26.669Z,16.00
2022-10-17T03:03:53.288Z,16.00
2022-10-17T03:06:19.871Z,16.00
2022-10-17T03:08:46.653Z,16.00
2022-10-17T03:11:13.231Z,16.00
2022-10-17T03:13:40.073Z,16.00
2022-10-17T03:16:06.703Z,16.00
2022-10-17T03:18:33.500Z,16.00
2022-10-17T03:21:00.094Z,16.00
2022-10-17T03:23:26.671Z,16.00
2022-10-17T03:25:53.454Z,16.00
2022-10-17T03:28:20.038Z,16.00
2022-10-17T03:30:46.840Z,16.00
2022-10-17T03:33:13.431Z,16.00
2022-10-17T03:35:40.081Z,16.00
2022-10-17T03:38:06.762Z,16.00
2022-10-17T03:40:33.561Z,16.00
2022-10-17T03:43:00.148Z,16.00
2022-10-17T03:45:26.728Z,16.00
2022-10-17T03:47:53.310Z,16.00
2022-10-17T03:50:19.888Z,16.00
2022-10-17T03:52:46.687Z,16.00
2022-10-17T03:55:13.262Z,15.90
2022-10-17T03:57:42.142Z,16.00
2022-10-17T04:00:11.320Z,15.90
2022-10-17T04:02:37.898Z,15.90
2022-10-17T04:05:04.476Z,16.00
2022-10-17T04:07:31.055Z,16.00
2022-10-17T04:09:57.939Z,16.00
2022-10-17T04:12:24.528Z,15.90
2022-10-17T04:14:51.102Z,16.00
2022-10-17T04:17:17.678Z,15.90
2022-10-17T04:19:44.267Z,15.90
2022-10-17T04:22:10.846Z,15.90
2022-10-17T04:24:37.431Z,15.90
2022-10-17T04:27:04.219Z,15.90
2022-10-17T04:29:30.814Z,15.90
2022-10-17T04:31:57.399Z,15.90
2022-10-17T04:34:24.195Z,15.90
2022-10-17T04:36:50.774Z,15.90
2022-10-17T04:39:17.363Z,15.90
2022-10-17T04:41:43.942Z,15.90
2022-10-17T04:44:10.527Z,15.90
2022-10-17T04:46:37.315Z,15.90
2022-10-17T04:49:04.361Z,15.80
2022-10-17T04:51:30.930Z,15.80
2022-10-17T04:53:57.518Z,15.80
2022-10-17T04:56:24.098Z,15.80
2022-10-17T04:58:50.677Z,15.80
2022-10-17T05:01:17.533Z,15.80
2022-10-17T05:03:44.158Z,15.80
2022-10-17T05:06:10.743Z,15.80
2022-10-17T05:08:37.538Z,15.80
2022-10-17T05:11:04.121Z,15.80
2022-10-17T05:13:30.943Z,15.70
2022-10-17T05:15:57.520Z,15.70
2022-10-17T05:18:24.104Z,15.70
2022-10-17T05:20:50.916Z,15.70
2022-10-17T05:23:17.495Z,15.70
2022-10-17T05:25:44.324Z,15.70
2022-10-17T05:28:10.934Z,15.70
2022-10-17T05:30:37.760Z,15.70
2022-10-17T05:33:04.403Z,15.70
2022-10-17T05:35:30.978Z,15.70
2022-10-17T05:37:57.556Z,15.70
2022-10-17T05:40:24.134Z,15.60
2022-10-17T05:42:50.940Z,15.60
2022-10-17T05:45:17.523Z,15.70
2022-10-17T05:47:44.333Z,15.70
2022-10-17T05:50:10.910Z,15.60
2022-10-17T05:52:37.488Z,15.60
2022-10-17T05:55:04.088Z,15.60
2022-10-17T05:57:30.673Z,15.60
2022-10-17T05:59:57.263Z,15.60
2022-10-17T06:02:23.893Z,15.60
2022-10-17T06:04:50.557Z,15.60
2022-10-17T06:07:17.191Z,15.60
2022-10-17T06:09:43.802Z,15.60
2022-10-17T06:12:10.405Z,15.60
2022-10-17T06:14:36.988Z,15.60
2022-10-17T06:17:03.741Z,15.60
2022-10-17T06:19:30.318Z,15.70
2022-10-17T06:21:56.911Z,15.60
2022-10-17T06:24:23.489Z,15.60
2022-10-17T06:26:50.299Z,15.60
2022-10-17T06:29:16.887Z,15.60
2022-10-17T06:31:43.521Z,15.60
2022-10-17T06:34:10.104Z,15.60
2022-10-17T06:36:36.685Z,15.70
2022-10-17T06:39:03.493Z,15.60
2022-10-17T06:41:30.083Z,15.60
2022-10-17T06:43:56.716Z,15.60
2022-10-17T06:46:23.297Z,15.60
2022-10-17T06:48:50.152Z,15.60
2022-10-17T06:51:16.738Z,15.70
2022-10-17T06:53:43.534Z,15.70
2022-10-17T06:56:10.135Z,15.70
2022-10-17T06:58:36.944Z,15.70
2022-10-17T07:01:03.651Z,15.70
2022-10-17T07:03:30.322Z,15.80
2022-10-17T07:05:56.900Z,15.80
2022-10-17T07:08:23.474Z,15.80
2022-10-17T07:10:50.274Z,15.80
2022-10-17T07:13:16.855Z,15.80
2022-10-17T07:15:43.679Z,15.80
2022-10-17T07:18:10.280Z,15.80
2022-10-17T07:20:36.850Z,15.80
2022-10-17T07:23:03.440Z,15.80
2022-10-17T07:25:30.018Z,15.80
2022-10-17T07:27:56.607Z,15.80
2022-10-17T07:30:23.182Z,15.80
2022-10-17T07:32:49.758Z,15.80
2022-10-17T07:35:16.337Z,15.80
2022-10-17T07:37:43.168Z,15.80
2022-10-17T07:40:09.746Z,15.80
2022-10-17T07:42:36.396Z,15.80
2022-10-17T07:45:03.000Z,15.80
2022-10-17T07:47:30.003Z,15.90
2022-10-17T07:49:56.902Z,15.80
2022-10-17T07:52:23.731Z,15.80
2022-10-17T07:54:50.319Z,15.80
2022-10-17T07:57:16.916Z,15.80
2022-10-17T07:59:43.489Z,15.90
2022-10-17T08:02:10.079Z,15.90
2022-10-17T08:04:36.694Z,15.90
2022-10-17T08:07:18.583Z,15.90
2022-10-17T08:09:46.728Z,15.90
2022-10-17T08:12:13.316Z,16.00
2022-10-17T08:14:39.899Z,16.00
2022-10-17T08:17:06.491Z,16.00
2022-10-17T08:19:33.299Z,16.10
2022-10-17T08:21:59.874Z,16.10
2022-10-17T08:24:26.486Z,16.10
2022-10-17T08:26:53.066Z,16.00
2022-10-17T08:29:19.657Z,16.00
2022-10-17T08:31:47.863Z,16.00
2022-10-17T08:34:15.634Z,16.00
2022-10-17T08:36:42.574Z,16.00
2022-10-17T08:39:09.164Z,16.00
2022-10-17T08:41:35.749Z,16.00
2022-10-17T08:44:02.325Z,16.00
2022-10-17T08:46:29.160Z,16.00
2022-10-17T08:48:55.756Z,15.90
2022-10-17T08:51:22.335Z,15.90
2022-10-17T08:53:48.924Z,15.90
2022-10-17T08:56:19.903Z,15.90
2022-10-17T08:58:51.205Z,15.90
2022-10-17T09:01:18.005Z,15.90
2022-10-17T09:03:44.589Z,15.90
2022-10-17T09:06:11.175Z,15.90
2022-10-17T09:08:37.982Z,15.90
2022-10-17T09:11:04.568Z,15.90
2022-10-17T09:13:31.203Z,15.90
2022-10-17T09:15:57.832Z,15.90
2022-10-17T09:18:24.411Z,15.90
2022-10-17T09:20:50.998Z,15.90
2022-10-17T09:23:17.580Z,16.00
2022-10-17T09:25:44.379Z,16.00
2022-10-17T09:28:10.976Z,16.10
2022-10-17T09:30:45.151Z,16.20
2022-10-17T09:34:53.201Z,16.20
2022-10-17T09:37:19.778Z,16.30
2022-10-17T09:39:46.366Z,16.40
2022-10-17T09:42:12.948Z,16.40
2022-10-17T09:44:39.535Z,16.40
2022-10-17T09:47:06.402Z,16.40
2022-10-17T09:49:32.973Z,16.50
2022-10-17T09:51:59.549Z,16.60
2022-10-17T09:54:26.339Z,16.60
2022-10-17T09:56:52.919Z,16.70
2022-10-17T09:59:19.710Z,16.70
2022-10-17T10:01:46.292Z,16.70
2022-10-17T10:04:13.110Z,16.70
2022-10-17T10:06:39.691Z,16.70
2022-10-17T10:09:06.728Z,16.60
2022-10-17T10:11:33.305Z,16.70
2022-10-17T10:13:59.877Z,16.70
2022-10-17T10:16:26.467Z,16.60
2022-10-17T10:18:53.041Z,16.70
2022-10-17T10:21:19.623Z,16.70
2022-10-17T10:23:46.198Z,16.70
2022-10-17T10:26:13.001Z,16.80
2022-10-17T10:28:39.634Z,16.80
2022-10-17T10:31:06.224Z,16.80
2022-10-17T10:33:32.799Z,16.80
2022-10-17T10:35:59.378Z,16.80
2022-10-17T10:38:25.950Z,16.90
2022-10-17T10:40:52.525Z,16.80
2022-10-17T10:43:19.109Z,16.90
2022-10-17T10:45:48.405Z,16.80
2022-10-17T10:48:15.635Z,16.90
2022-10-17T10:50:45.281Z,16.90
2022-10-17T10:53:12.352Z,16.90
2022-10-17T10:55:38.926Z,16.90
2022-10-17T10:58:05.503Z,16.90
2022-10-17T11:00:32.371Z,16.90
2022-10-17T11:03:01.223Z,16.90
2022-10-17T11:05:28.341Z,17.00
2022-10-17T11:07:55.161Z,17.00
2022-10-17T11:10:21.729Z,17.00
2022-10-17T11:12:48.302Z,17.00
2022-10-17T11:15:14.876Z,17.00
2022-10-17T11:17:41.445Z,17.00
2022-10-17T11:20:08.029Z,17.00
2022-10-17T11:22:35.104Z,17.00
2022-10-17T11:25:02.053Z,17.00
2022-10-17T11:27:28.625Z,17.10
2022-10-17T11:29:55.204Z,17.10
2022-10-17T11:32:21.786Z,17.10
2022-10-17T11:34:48.359Z,17.10
2022-10-17T11:37:15.159Z,17.10
2022-10-17T11:39:41.756Z,17.10
2022-10-17T11:42:08.384Z,17.10
2022-10-17T11:44:34.960Z,17.10
2022-10-17T11:47:01.537Z,17.20
2022-10-17T11:52:01.198Z,17.20
2022-10-17T11:54:29.013Z,17.20
2022-10-17T11:56:55.585Z,17.20
2022-10-17T11:59:22.178Z,17.30
2022-10-17T12:01:49.008Z,17.30
2022-10-17T12:04:15.633Z,17.30
2022-10-17T12:06:42.291Z,17.40
2022-10-17T12:09:08.861Z,17.40
2022-10-17T12:11:35.440Z,17.40
2022-10-17T12:14:05.774Z,17.40
2022-10-17T12:16:33.039Z,17.50
2022-10-17T12:18:59.689Z,17.50
2022-10-17T12:21:29.729Z,17.50
2022-10-17T12:23:57.929Z,17.60
2022-10-17T12:26:24.534Z,17.60
2022-10-17T12:28:51.196Z,17.60
2022-10-17T12:31:17.863Z,17.70
2022-10-17T12:33:44.437Z,17.70
2022-10-17T12:36:11.015Z,17.70
2022-10-17T12:38:37.590Z,17.80
2022-10-17T12:41:04.171Z,17.80
2022-10-17T12:43:30.998Z,17.80
2022-10-17T12:45:57.691Z,17.80
2022-10-17T12:48:24.271Z,17.90
2022-10-17T12:50:50.858Z,17.90
2022-10-17T12:53:19.234Z,18.00
2022-10-17T12:55:46.062Z,18.00
2022-10-17T12:58:12.639Z,18.00
2022-10-17T13:00:39.258Z,18.00
2022-10-17T13:03:06.107Z,18.00
2022-10-17T13:05:32.684Z,18.10
2022-10-17T13:07:59.993Z,18.20
2022-10-17T13:12:58.137Z,18.30
2022-10-17T13:15:24.719Z,18.40
2022-10-17T13:17:51.299Z,18.60
2022-10-17T13:20:23.528Z,18.70
2022-10-17T13:22:52.203Z,19.30
2022-10-17T13:25:18.773Z,19.60
2022-10-17T13:27:45.345Z,19.50
2022-10-17T13:30:11.925Z,19.70
2022-10-17T13:32:38.511Z,19.90
2022-10-17T13:35:05.441Z,20.10
2022-10-17T13:37:32.019Z,20.20
2022-10-17T13:40:07.061Z,20.50
2022-10-17T13:42:44.350Z,20.60
2022-10-17T13:45:10.930Z,20.30
2022-10-17T13:47:37.506Z,20.00
2022-10-17T13:50:09.422Z,20.10
2022-10-17T13:52:43.358Z,20.60
2022-10-17T13:55:11.730Z,20.30
2022-10-17T13:57:39.905Z,20.10
2022-10-17T14:00:09.968Z,20.40
2022-10-17T14:02:38.332Z,20.70
2022-10-17T14:05:16.632Z,20.40
2022-10-17T14:08:09.844Z,20.20
2022-10-17T14:10:31.150Z,20.00
2022-10-17T14:12:57.957Z,20.20
2022-10-17T14:15:24.529Z,20.60
2022-10-17T14:17:51.110Z,20.60
2022-10-17T14:23:22.106Z,20.90
2022-10-17T14:25:49.858Z,21.00
2022-10-17T14:28:16.435Z,20.80
2022-10-17T14:30:58.340Z,20.90
2022-10-17T14:33:24.937Z,21.00
2022-10-17T14:35:51.518Z,21.30
2022-10-17T14:38:18.098Z,21.30
2022-10-17T14:40:44.683Z,21.20
2022-10-17T14:43:11.257Z,21.00
2022-10-17T14:45:37.830Z,20.80
2022-10-17T14:48:04.411Z,20.80
2022-10-17T14:50:30.986Z,21.00
2022-10-17T14:52:57.795Z,21.10
2022-10-17T14:55:24.369Z,20.80
2022-10-17T14:57:50.944Z,20.80
2022-10-17T15:00:17.750Z,20.80
2022-10-17T15:02:44.576Z,20.70
2022-10-17T15:05:13.442Z,20.70
2022-10-17T15:07:40.507Z,20.70
2022-10-17T15:10:07.081Z,21.30
2022-10-17T15:12:33.660Z,21.60
2022-10-17T15:15:00.238Z,21.10
2022-10-17T15:17:26.818Z,20.50
2022-10-17T15:19:53.401Z,20.20
2022-10-17T15:22:19.973Z,19.90
2022-10-17T15:24:46.565Z,19.60
2022-10-17T15:27:13.150Z,19.30
2022-10-17T15:29:39.737Z,19.20
2022-10-17T15:32:06.323Z,19.10
2022-10-17T15:34:32.913Z,19.00
2022-10-17T15:36:59.597Z,19.00
2022-10-17T15:39:26.168Z,18.90
2022-10-17T15:41:52.745Z,18.90
2022-10-17T15:44:19.326Z,18.80
2022-10-17T15:46:45.911Z,18.80
2022-10-17T15:49:12.491Z,18.80
2022-10-17T15:51:39.303Z,18.70
2022-10-17T15:54:05.910Z,18.70
2022-10-17T15:56:32.523Z,18.60
2022-10-17T15:58:59.106Z,18.50
2022-10-17T16:01:25.696Z,18.50
2022-10-17T16:03:52.276Z,18.40
2022-10-17T16:06:18.852Z,18.30
2022-10-17T16:08:45.421Z,18.20
2022-10-17T16:11:12.242Z,18.20
2022-10-17T16:13:38.825Z,18.10
2022-10-17T16:16:05.401Z,18.10
2022-10-17T16:18:32.205Z,18.10
2022-10-17T16:20:58.796Z,18.00
2022-10-17T16:23:25.378Z,18.00
2022-10-17T16:25:51.954Z,17.90
2022-10-17T16:28:18.523Z,17.90
2022-10-17T16:30:45.314Z,17.80
2022-10-17T16:33:11.915Z,17.80
2022-10-17T16:35:38.725Z,17.80
2022-10-17T16:38:05.298Z,17.80
2022-10-17T16:40:31.881Z,17.70
2022-10-17T16:42:58.468Z,17.70
2022-10-17T16:45:25.059Z,17.70
2022-10-17T16:47:51.643Z,17.60
2022-10-17T16:50:18.227Z,17.60
2022-10-17T16:52:44.797Z,17.60
2022-10-17T16:55:11.595Z,17.50
2022-10-17T16:57:38.234Z,17.50
2022-10-17T17:00:04.837Z,17.50
2022-10-17T17:02:31.743Z,17.50
2022-10-17T17:04:58.497Z,17.40
2022-10-17T17:07:25.299Z,17.40
2022-10-17T17:09:51.874Z,17.40
2022-10-17T17:12:18.452Z,17.40
2022-10-17T17:14:45.040Z,17.30
2022-10-17T17:17:19.509Z,17.30
2022-10-17T17:19:57.307Z,17.30
2022-10-17T17:22:23.903Z,17.30
2022-10-17T17:24:50.656Z,17.20
2022-10-17T17:27:17.323Z,17.20
2022-10-17T17:29:44.128Z,17.20
2022-10-17T17:32:10.704Z,17.20
2022-10-17T17:34:37.289Z,17.20
2022-10-17T17:37:03.885Z,17.20
2022-10-17T17:39:30.469Z,17.20
2022-10-17T17:41:57.054Z,17.10
2022-10-17T17:44:23.635Z,17.10
2022-10-17T17:46:50.230Z,17.10
2022-10-17T17:49:16.844Z,17.10
2022-10-17T17:51:43.414Z,17.10
2022-10-17T17:54:10.215Z,17.10
2022-10-17T17:56:36.790Z,17.00
2022-10-17T17:59:03.655Z,17.00
2022-10-17T18:01:30.290Z,17.00
2022-10-17T18:03:56.926Z,17.00
2022-10-17T18:06:23.507Z,17.00
2022-10-17T18:08:50.082Z,17.00
2022-10-17T18:11:19.617Z,17.00
2022-10-17T18:13:48.494Z,16.90
2022-10-17T18:16:15.066Z,16.90
2022-10-17T18:18:41.641Z,16.90
2022-10-17T18:21:08.182Z,16.90
2022-10-17T18:23:34.776Z,17.00
2022-10-17T18:26:01.612Z,16.90
2022-10-17T18:28:28.543Z,16.90
2022-10-17T18:30:55.175Z,16.90
2022-10-17T18:33:21.745Z,16.80
2022-10-17T18:35:48.534Z,16.90
2022-10-17T18:38:15.110Z,16.90
2022-10-17T18:40:41.691Z,16.80
2022-10-17T18:43:08.265Z,16.80
2022-10-17T18:45:35.079Z,16.80
2022-10-17T18:48:01.658Z,16.80
2022-10-17T18:50:28.235Z,16.80
2022-10-17T18:52:55.042Z,16.80
2022-10-17T18:55:21.609Z,16.80
2022-10-17T18:57:48.251Z,16.80
2022-10-17T19:00:14.821Z,16.70
2022-10-17T19:02:41.618Z,16.70
2022-10-17T19:05:08.211Z,16.70
2022-10-17T19:07:35.013Z,16.70
2022-10-17T19:10:01.587Z,16.70
2022-10-17T19:12:28.154Z,16.70
2022-10-17T19:14:54.726Z,16.70
2022-10-17T19:17:21.315Z,16.70
2022-10-17T19:19:47.897Z,16.70
2022-10-17T19:22:14.466Z,16.60
2022-10-17T19:24:41.052Z,16.70
2022-10-17T19:27:07.636Z,16.70
2022-10-17T19:29:34.223Z,16.70
2022-10-17T19:32:00.805Z,16.60
2022-10-17T19:34:27.629Z,16.60
2022-10-17T19:36:54.201Z,16.60
2022-10-17T19:39:20.999Z,16.60
2022-10-17T19:41:47.584Z,16.60
2022-10-17T19:44:14.383Z,16.60
2022-10-17T19:46:41.183Z,16.60
2022-10-17T19:49:07.757Z,16.60
2022-10-17T19:51:34.567Z,16.60
2022-10-17T19:54:01.148Z,16.60
2022-10-17T19:56:27.754Z,16.50
2022-10-17T19:58:54.558Z,16.60
2022-10-17T20:01:21.169Z,16.50
2022-10-17T20:03:47.762Z,16.50
2022-10-17T20:06:14.341Z,16.50
2022-10-17T20:08:40.929Z,16.50
2022-10-17T20:11:07.730Z,16.50
2022-10-17T20:13:34.343Z,16.50
2022-10-17T20:16:00.922Z,16.50
2022-10-17T20:18:27.497Z,16.50
2022-10-17T20:20:54.065Z,16.50
2022-10-17T20:23:20.884Z,16.50
2022-10-17T20:25:47.471Z,16.50
2022-10-17T20:28:14.130Z,16.40
2022-10-17T20:30:40.712Z,16.40
2022-10-17T20:33:07.290Z,16.40
2022-10-17T20:35:33.918Z,16.40
2022-10-17T20:38:00.512Z,16.40
2022-10-17T20:40:34.997Z,16.40
2022-10-17T20:43:02.251Z,16.40
2022-10-17T20:45:43.714Z,16.40
2022-10-17T20:48:15.635Z,16.40
2022-10-17T20:50:42.453Z,16.40
2022-10-17T20:53:31.826Z,16.40
2022-10-17T20:55:55.814Z,16.40
2022-10-17T20:58:22.391Z,16.40
2022-10-17T21:00:48.970Z,16.40
2022-10-17T21:03:15.547Z,16.40
2022-10-17T21:05:42.125Z,16.30
2022-10-17T21:08:08.702Z,16.30
2022-10-17T21:10:35.904Z,16.30
2022-10-17T21:13:02.554Z,16.30
2022-10-17T21:15:29.133Z,16.40
2022-10-17T21:17:55.732Z,16.30
2022-10-17T21:20:22.595Z,16.30
2022-10-17T21:22:49.166Z,16.30
2022-10-17T21:25:15.755Z,16.30
2022-10-17T21:27:42.338Z,16.30
2022-10-17T21:30:08.929Z,16.30
2022-10-17T21:32:50.992Z,16.30
2022-10-17T21:35:18.341Z,16.30
2022-10-17T21:37:45.550Z,16.30
2022-10-17T21:40:12.117Z,16.30
2022-10-17T21:42:38.917Z,16.20
2022-10-17T21:45:10.763Z,16.30
2022-10-17T21:47:54.925Z,16.30
2022-10-17T21:50:28.845Z,16.30
2022-10-17T21:52:55.654Z,16.20
2022-10-17T21:55:22.225Z,16.20
2022-10-17T21:57:48.797Z,16.20
2022-10-17T22:00:15.339Z,16.20
2022-10-17T22:02:41.924Z,16.20
2022-10-17T22:05:08.705Z,16.20
2022-10-17T22:07:35.290Z,16.20
2022-10-17T22:10:01.866Z,16.20
2022-10-17T22:12:28.702Z,16.20
2022-10-17T22:14:55.730Z,16.20
2022-10-17T22:17:22.526Z,16.20
2022-10-17T22:19:49.103Z,16.20
2022-10-17T22:22:15.703Z,16.20
2022-10-17T22:24:42.281Z,16.20
2022-10-17T22:27:08.854Z,16.20
2022-10-17T22:29:35.655Z,16.20
2022-10-17T22:32:02.229Z,16.10
2022-10-17T22:34:28.811Z,16.10
2022-10-17T22:36:55.398Z,16.10
2022-10-17T22:39:21.976Z,16.10
2022-10-17T22:41:48.544Z,16.10
2022-10-17T22:44:15.349Z,16.10
2022-10-17T22:46:42.379Z,16.10
2022-10-17T22:49:08.964Z,16.10
2022-10-17T22:51:35.543Z,16.10
2022-10-17T22:54:02.127Z,16.10
2022-10-17T22:56:28.706Z,16.10
2022-10-17T22:58:55.498Z,16.10
2022-10-17T23:01:22.129Z,16.10
2022-10-17T23:03:48.787Z,16.10
2022-10-17T23:06:15.391Z,16.10
2022-10-17T23:08:41.969Z,16.10
2022-10-17T23:11:08.544Z,16.00
2022-10-17T23:13:35.119Z,16.10
2022-10-17T23:16:01.900Z,16.10
2022-10-17T23:18:28.479Z,16.10
2022-10-17T23:20:55.061Z,16.00
2022-10-17T23:23:21.860Z,16.00
2022-10-17T23:25:48.442Z,16.00
2022-10-17T23:28:15.253Z,16.00
2022-10-17T23:30:41.822Z,16.00
2022-10-17T23:33:08.394Z,16.00
2022-10-17T23:35:34.972Z,16.00
2022-10-17T23:38:01.548Z,16.00
2022-10-17T23:40:28.125Z,16.00
2022-10-17T23:42:54.712Z,16.00
2022-10-17T23:45:21.557Z,16.00
2022-10-17T23:47:48.187Z,16.00
2022-10-17T23:50:14.770Z,16.00
2022-10-17T23:52:41.352Z,16.00
2022-10-17T23:55:08.482Z,16.00
2022-10-17T23:57:35.089Z,16.00
